Detalii statie Lilieci, IL [00001199]

Toti senzorii

Date Temperatura solului [C]Precipitatii [mm]Voltaj baterie [mV]Leaf Wetness [Min]HC Air temperature [C]HC Relative humidity [%]Punctul de roua [C]
medieminmaxsumaultimatimpmedieminmaxmediemediemin
2019-08-15 20:00:00 31 29.5 32.7 0 6688 0 23 21.52 24.76 53.24 12.8 12.4
2019-08-15 22:00:00 28.1 27 29.6 0 6630 0 20.26 19.14 21.42 60.44 12.1 11.8
2019-08-16 00:00:00 26.3 25.7 26.9 0 6582 0 18.96 18.61 19.21 64.51 11.9 11.6
2019-08-16 02:00:00 25.2 24.7 25.7 0 6552 0 18.22 18.01 18.63 66.24 11.6 11.4
2019-08-16 04:00:00 24.3 24 24.8 0 6542 0 17.87 17.65 18.13 66.77 11.4 11.3
2019-08-16 06:00:00 23.6 23.2 24 0 6542 0 17.44 17.15 17.68 69.6 11.7 11.5
2019-08-16 08:00:00 23.4 23.3 23.9 0 6884 0 18.62 17.55 19.63 64.32 11.5 11
2019-08-16 10:00:00 24.7 23.8 25.6 0 6884 0 21.53 19.89 22.63 50.74 10.6 10.3
2019-08-16 12:00:00 26.9 25.5 29 0 6884 0 23.2 22.05 24.6 45.3 10.5 10.2
2019-08-16 14:00:00 31 29.1 32.5 0 6884 0 25.02 23.82 26.13 41.18 10.6 10.4
2019-08-16 16:00:00 33.4 32.5 34.4 0 6874 0 25.81 25.05 26.76 39.13 10.6 10.4
2019-08-16 18:00:00 32.5 32 33.5 0 6864 0 25.93 25.11 27.21 39.88 11 10.7
2019-08-16 20:00:00 30.2 28.6 31.7 0 6668 0 23.56 22.04 25.22 47.89 11.6 11.2
2019-08-16 22:00:00 27.4 26.3 28.7 0 6620 0 20.28 19.01 21.95 64.45 13.1 12.5
2019-08-17 00:00:00 25.4 24.9 26.2 0 6582 0 18.37 17.93 18.9 70.91 12.8 12.1
2019-08-17 02:00:00 24.3 24 24.7 0 6532 0 18.18 17.59 18.64 76.79 13.8 13.7
2019-08-17 04:00:00 23.7 23.4 24.2 0 6542 0 17.57 17.31 18.13 86.3 15 13.8
2019-08-17 06:00:00 23.2 22.9 23.5 0 6532 0 17.29 17.09 17.5 96.1 16.5 15.8
2019-08-17 08:00:00 23.1 22.9 23.5 0 6884 0 19.2 17.41 21.64 82.72 15.8 13.1
2019-08-17 10:00:00 23.8 23.4 24.4 0 6874 0 24.1 22.41 25.86 44.29 10.9 9.5
2019-08-17 12:00:00 25.9 24.5 27.9 0 6874 0 25.94 24.89 27.25 37.51 10 9.5
2019-08-17 14:00:00 29.9 28 31 0 6884 0 27.17 25.43 28.78 35.18 10.2 9.5
2019-08-17 16:00:00 30.6 30 31.9 0 6874 0 26.96 25.27 28.73 36.35 10.4 9.5
2019-08-17 18:00:00 32.5 31.9 32.9 0 6864 0 28.08 27.29 28.81 33.43 10.2 9.5